createdAt,value
2022-12-18T00:02:17.215Z,99750.81
2022-12-18T00:07:24.088Z,99748.80
2022-12-18T00:12:31.178Z,99751.95
2022-12-18T00:17:38.315Z,99758.33
2022-12-18T00:22:45.495Z,99767.23
2022-12-18T00:27:52.595Z,99764.73
2022-12-18T00:33:00.338Z,99768.20
2022-12-18T00:38:07.754Z,99768.55
2022-12-18T00:43:14.614Z,99777.59
2022-12-18T00:48:22.047Z,99784.38
2022-12-18T00:53:29.244Z,99783.23
2022-12-18T00:58:38.825Z,99795.33
2022-12-18T01:03:46.627Z,99806.45
2022-12-18T01:08:53.656Z,99812.56
2022-12-18T01:14:03.060Z,99825.00
2022-12-18T01:19:10.122Z,99830.40
2022-12-18T01:24:17.636Z,99830.95
2022-12-18T01:29:24.784Z,99831.77
2022-12-18T01:34:32.058Z,99834.73
2022-12-18T01:39:39.349Z,99831.34
2022-12-18T01:45:03.605Z,99831.02
2022-12-18T01:50:12.964Z,99836.82
2022-12-18T01:55:21.875Z,99844.73
2022-12-18T02:00:29.299Z,99852.15
2022-12-18T02:05:43.665Z,99859.75
2022-12-18T02:10:57.535Z,99867.25
2022-12-18T02:16:09.517Z,99873.73
2022-12-18T02:21:23.925Z,99888.20
2022-12-18T02:26:33.793Z,99892.77
2022-12-18T02:31:43.494Z,99903.61
2022-12-18T02:36:51.365Z,99901.65
2022-12-18T02:41:59.183Z,99902.11
2022-12-18T02:47:06.424Z,99909.52
2022-12-18T02:52:20.274Z,99917.39
2022-12-18T02:57:34.404Z,99918.80
2022-12-18T03:02:45.667Z,99925.45
2022-12-18T03:07:55.636Z,99936.52
2022-12-18T03:13:05.055Z,99942.92
2022-12-18T03:18:14.055Z,99948.67
2022-12-18T03:23:26.248Z,99954.16
2022-12-18T03:28:36.654Z,99952.52
2022-12-18T03:33:46.883Z,99949.56
2022-12-18T03:38:54.274Z,99955.04
2022-12-18T03:44:04.247Z,99959.71
2022-12-18T03:49:13.465Z,99964.16
2022-12-18T03:54:21.606Z,99970.41
2022-12-18T03:59:30.328Z,99972.38
2022-12-18T04:04:38.445Z,99987.75
2022-12-18T04:09:46.962Z,99988.83
2022-12-18T04:14:54.408Z,99991.13
2022-12-18T04:20:01.939Z,99991.95
2022-12-18T04:25:09.656Z,99992.62
2022-12-18T04:30:17.074Z,100003.05
2022-12-18T04:35:24.155Z,100008.44
2022-12-18T04:40:31.435Z,100013.58
2022-12-18T04:45:39.258Z,100025.89
2022-12-18T04:50:48.035Z,100034.73
2022-12-18T04:56:04.817Z,100038.20
2022-12-18T05:01:12.293Z,100047.46
2022-12-18T05:06:19.321Z,100052.69
2022-12-18T05:11:26.196Z,100052.32
2022-12-18T05:16:33.162Z,100056.23
2022-12-18T05:21:40.085Z,100061.94
2022-12-18T05:26:47.125Z,100069.30
2022-12-18T05:31:54.183Z,100072.07
2022-12-18T05:37:01.017Z,100078.69
2022-12-18T05:42:08.228Z,100082.82
2022-12-18T05:47:15.445Z,100090.73
2022-12-18T05:52:22.145Z,100095.29
2022-12-18T05:57:29.456Z,100095.17
2022-12-18T06:02:36.892Z,100096.38
2022-12-18T06:07:43.986Z,100098.66
2022-12-18T06:12:50.765Z,100104.45
2022-12-18T06:17:57.578Z,100107.92
2022-12-18T06:23:04.625Z,100108.75
2022-12-18T06:28:11.915Z,100112.45
2022-12-18T06:33:19.254Z,100121.73
2022-12-18T06:38:26.865Z,100133.81
2022-12-18T06:43:34.315Z,100139.94
2022-12-18T06:48:41.667Z,100144.45
2022-12-18T06:53:49.076Z,100153.98
2022-12-18T06:58:56.174Z,100162.48
2022-12-18T07:04:03.205Z,100170.09
2022-12-18T07:09:10.486Z,100175.20
2022-12-18T07:14:17.676Z,100183.71
2022-12-18T07:19:26.806Z,100187.45
2022-12-18T07:24:35.256Z,100196.65
2022-12-18T07:29:42.966Z,100205.77
2022-12-18T07:34:50.696Z,100216.24
2022-12-18T07:39:57.987Z,100218.85
2022-12-18T07:45:05.735Z,100224.80
2022-12-18T07:50:14.728Z,100230.22
2022-12-18T07:55:22.116Z,100229.02
2022-12-18T08:00:29.355Z,100225.39
2022-12-18T08:05:36.305Z,100227.60
2022-12-18T08:10:43.215Z,100229.17
2022-12-18T08:15:58.427Z,100228.08
2022-12-18T08:21:12.079Z,100225.23
2022-12-18T08:26:19.245Z,100231.92
2022-12-18T08:31:27.058Z,100238.92
2022-12-18T08:36:34.077Z,100244.20
2022-12-18T08:41:40.937Z,100245.01
2022-12-18T08:46:48.179Z,100254.11
2022-12-18T08:51:59.082Z,100260.86
2022-12-18T08:57:06.274Z,100265.66
2022-12-18T09:02:14.407Z,100270.48
2022-12-18T09:07:21.459Z,100273.77
2022-12-18T09:12:28.606Z,100282.65
2022-12-18T09:17:35.434Z,100288.83
2022-12-18T09:22:42.075Z,100295.60
2022-12-18T09:27:49.706Z,100296.08
2022-12-18T09:32:59.485Z,100293.63
2022-12-18T09:38:06.466Z,100299.15
2022-12-18T09:43:17.825Z,100306.11
2022-12-18T09:48:26.595Z,100309.80
2022-12-18T09:53:34.918Z,100308.61
2022-12-18T09:58:45.825Z,100305.59
2022-12-18T10:03:53.726Z,100309.91
2022-12-18T10:09:05.597Z,100310.19
2022-12-18T10:14:22.506Z,100302.02
2022-12-18T10:19:38.175Z,100299.83
2022-12-18T10:24:47.966Z,100305.55
2022-12-18T10:29:55.985Z,100295.66
2022-12-18T10:35:03.245Z,100279.31
2022-12-18T10:40:16.837Z,100274.95
2022-12-18T10:45:27.343Z,100277.27
2022-12-18T10:56:07.345Z,100272.77
2022-12-18T11:01:15.144Z,100271.98
2022-12-18T11:06:23.136Z,100260.06
2022-12-18T11:11:30.625Z,100258.46
2022-12-18T11:16:39.348Z,100249.24
2022-12-18T11:21:46.426Z,100249.67
2022-12-18T11:26:59.356Z,100247.46
2022-12-18T11:32:27.996Z,100250.02
2022-12-18T11:37:35.385Z,100257.67
2022-12-18T11:42:44.255Z,100264.46
2022-12-18T11:47:53.025Z,100265.90
2022-12-18T11:53:05.633Z,100264.55
2022-12-18T11:58:19.028Z,100264.48
2022-12-18T12:03:43.671Z,100273.98
2022-12-18T12:09:01.245Z,100273.37
2022-12-18T12:14:24.826Z,100276.08
2022-12-18T12:19:38.924Z,100283.15
2022-12-18T12:24:53.375Z,100280.70
2022-12-18T12:30:05.177Z,100282.34
2022-12-18T12:35:22.354Z,100292.95
2022-12-18T12:41:02.891Z,100293.39
2022-12-18T12:46:04.094Z,100300.02
2022-12-18T12:51:14.635Z,100294.64
2022-12-18T12:56:23.332Z,100285.02
2022-12-18T13:01:36.862Z,100298.89
2022-12-18T13:06:48.236Z,100295.39
2022-12-18T13:12:12.724Z,100300.89
2022-12-18T13:17:30.734Z,100309.70
2022-12-18T13:22:39.155Z,100314.20
2022-12-18T13:28:02.605Z,100318.23
2022-12-18T13:33:29.615Z,100323.02
2022-12-18T13:38:40.715Z,100320.20
2022-12-18T13:43:49.294Z,100322.19
2022-12-18T13:48:58.935Z,100327.04
2022-12-18T13:54:08.600Z,100333.22
2022-12-18T13:59:24.584Z,100335.10
2022-12-18T14:04:33.085Z,100326.70
2022-12-18T14:09:42.607Z,100325.95
2022-12-18T14:14:53.101Z,100325.01
2022-12-18T14:20:03.168Z,100327.70
2022-12-18T14:25:17.497Z,100320.64
2022-12-18T14:30:34.958Z,100323.67
2022-12-18T14:35:43.276Z,100323.37
2022-12-18T14:40:50.335Z,100324.42
2022-12-18T14:45:58.006Z,100325.63
2022-12-18T14:51:06.195Z,100338.59
2022-12-18T14:56:19.835Z,100348.59
2022-12-18T15:01:27.982Z,100347.29
2022-12-18T15:06:36.375Z,100350.27
2022-12-18T15:11:49.948Z,100351.21
2022-12-18T15:16:57.538Z,100360.98
2022-12-18T15:22:06.538Z,100362.56
2022-12-18T15:27:24.489Z,100371.35
2022-12-18T15:32:31.497Z,100371.89
2022-12-18T15:37:43.837Z,100378.88
2022-12-18T15:43:08.885Z,100378.73
2022-12-18T15:48:23.271Z,100382.00
2022-12-18T15:53:32.275Z,100380.55
2022-12-18T15:58:39.376Z,100382.34
2022-12-18T16:03:46.641Z,100383.16
2022-12-18T16:08:53.792Z,100396.02
2022-12-18T16:14:00.747Z,100398.79
2022-12-18T16:19:07.997Z,100397.51
2022-12-18T16:24:18.006Z,100401.63
2022-12-18T16:29:28.743Z,100403.77
2022-12-18T16:34:36.895Z,100405.20
2022-12-18T16:39:43.875Z,100402.70
2022-12-18T16:44:51.985Z,100399.90
2022-12-18T16:49:59.167Z,100401.69
2022-12-18T16:55:06.534Z,100399.54
2022-12-18T17:00:14.814Z,100395.60
2022-12-18T17:05:21.805Z,100385.14
2022-12-18T17:10:28.976Z,100375.84
2022-12-18T17:15:38.960Z,100367.89
2022-12-18T17:20:46.135Z,100357.95
2022-12-18T17:25:56.665Z,100347.61
2022-12-18T17:31:03.704Z,100343.83
2022-12-18T17:36:11.427Z,100350.12
2022-12-18T17:41:18.363Z,100349.96
2022-12-18T17:46:26.422Z,100361.32
2022-12-18T17:51:33.695Z,100388.52
2022-12-18T17:56:41.095Z,100388.98
2022-12-18T18:01:48.563Z,100385.50
2022-12-18T18:06:56.025Z,100393.24
2022-12-18T18:12:20.394Z,100390.01
2022-12-18T18:17:27.910Z,100384.56
2022-12-18T18:22:35.444Z,100377.73
2022-12-18T18:27:42.599Z,100377.53
2022-12-18T18:32:50.655Z,100384.00
2022-12-18T18:37:59.816Z,100387.29
2022-12-18T18:43:06.955Z,100395.86
2022-12-18T18:48:14.486Z,100397.98
2022-12-18T18:53:22.035Z,100398.26
2022-12-18T18:58:29.048Z,100405.21
2022-12-18T19:03:37.986Z,100405.10
2022-12-18T19:08:46.826Z,100419.89
2022-12-18T19:13:54.054Z,100425.85
2022-12-18T19:19:03.578Z,100428.34
2022-12-18T19:24:11.385Z,100433.66
2022-12-18T19:29:18.635Z,100422.45
2022-12-18T19:34:25.807Z,100413.86
2022-12-18T19:39:33.047Z,100431.95
2022-12-18T19:44:40.235Z,100437.20
2022-12-18T19:49:47.398Z,100439.30
2022-12-18T19:54:54.256Z,100439.54
2022-12-18T20:00:00.897Z,100428.94
2022-12-18T20:05:09.360Z,100418.67
2022-12-18T20:10:16.416Z,100419.22
2022-12-18T20:15:25.456Z,100425.08
2022-12-18T20:20:32.527Z,100422.69
2022-12-18T20:25:40.258Z,100413.92
2022-12-18T20:30:47.307Z,100411.66
2022-12-18T20:35:54.447Z,100407.45
2022-12-18T20:41:02.777Z,100398.69
2022-12-18T20:46:11.121Z,100395.13
2022-12-18T20:51:19.106Z,100385.59
2022-12-18T20:56:27.166Z,100377.38
2022-12-18T21:01:34.112Z,100373.55
2022-12-18T21:06:43.829Z,100375.27
2022-12-18T21:12:13.218Z,100373.27
2022-12-18T21:17:21.835Z,100368.88
2022-12-18T21:22:29.307Z,100375.77
2022-12-18T21:27:36.585Z,100380.55
2022-12-18T21:32:43.649Z,100382.11
2022-12-18T21:37:50.557Z,100373.57
2022-12-18T21:43:17.816Z,100369.34
2022-12-18T21:48:25.084Z,100378.45
2022-12-18T21:53:32.375Z,100386.10
2022-12-18T21:58:39.616Z,100383.94
2022-12-18T22:04:04.636Z,100385.02
2022-12-18T22:09:12.847Z,100378.60
2022-12-18T22:14:19.988Z,100375.67
2022-12-18T22:19:27.175Z,100385.11
2022-12-18T22:24:34.496Z,100383.54
2022-12-18T22:29:59.255Z,100375.88
2022-12-18T22:35:14.170Z,100373.44
2022-12-18T22:40:30.068Z,100377.65
2022-12-18T22:45:38.409Z,100372.80
2022-12-18T22:50:46.155Z,100372.27
2022-12-18T22:55:53.655Z,100367.73
2022-12-18T23:01:00.866Z,100374.08
2022-12-18T23:06:09.122Z,100373.27
2022-12-18T23:11:16.774Z,100372.58
2022-12-18T23:16:25.418Z,100365.11
2022-12-18T23:21:32.686Z,100358.57
2022-12-18T23:26:40.966Z,100366.91
2022-12-18T23:31:48.069Z,100377.25
2022-12-18T23:36:56.177Z,100369.74
2022-12-18T23:42:03.392Z,100360.55
2022-12-18T23:47:10.335Z,100354.54
2022-12-18T23:52:17.575Z,100351.52
2022-12-18T23:57:24.666Z,100355.05
